0425 UTC 19 January 2017 found at http://aviationweather.gov/adds/metars/
 
METAR text: KAFF 190358Z AUTO 36007KT 10SM CLR M03/M09 A2973 RMK AO2 SLP088 T10331088
Conditions at: KAFF (USAF ACADEMY/COS, CO, US) observed 0358 UTC 19 January 2017
Temperature: -3.3°C (26°F)
Dewpoint: -8.8°C (16°F) [RH = 66%]
Pressure (altimeter): 29.73 inches Hg (1006.9 mb[Sea-level pressure: 1008.8 mb]
Winds: from the N (360 degrees) at 8 MPH (7 knots; 3.6 m/s)
Visibility: 10 or more miles (16+ km)
Ceiling: at least 12,000 feet AGL
Clouds: sky clear below 12,000 feet AGL
Weather: automated observation with no human augmentation;
there may or may not be significant weather present at this time

METAR text: KAFF 190258Z AUTO 01008KT 10SM CLR M04/M09 A2974 RMK AO2 SLP115 T10381087 58015
Conditions at: KAFF (USAF ACADEMY/COS, CO, US) observed 0258 UTC 19 January 2017
Temperature: -3.8°C (25°F)
Dewpoint: -8.7°C (16°F) [RH = 69%]
Pressure (altimeter): 29.74 inches Hg (1007.2 mb[Sea-level pressure: 1011.5 mb]
Winds: from the N (10 degrees) at 9 MPH (8 knots; 4.2 m/s)
Visibility: 10 or more miles (16+ km)
Ceiling: at least 12,000 feet AGL
Clouds: sky clear below 12,000 feet AGL
Weather: automated observation with no human augmentation;
there may or may not be significant weather present at this time

METAR text: KAFF 190158Z AUTO 36008KT 10SM CLR M04/M09 A2977 RMK AO2 SLP126 T10381090
Conditions at: KAFF (USAF ACADEMY/COS, CO, US) observed 0158 UTC 19 January 2017
Temperature: -3.8°C (25°F)
Dewpoint: -9.0°C (16°F) [RH = 67%]
Pressure (altimeter): 29.77 inches Hg (1008.2 mb[Sea-level pressure: 1012.6 mb]
Winds: from the N (360 degrees) at 9 MPH (8 knots; 4.2 m/s)
Visibility: 10 or more miles (16+ km)
Ceiling: at least 12,000 feet AGL
Clouds: sky clear below 12,000 feet AGL
Weather: automated observation with no human augmentation;
there may or may not be significant weather present at this time

METAR text: KAFF 190058Z AUTO 35006KT 10SM CLR 02/M09 A2979 RMK AO2 SLP121 T00201090
Conditions at: KAFF (USAF ACADEMY/COS, CO, US) observed 0058 UTC 19 January 2017
Temperature: 2.0°C (36°F)
Dewpoint: -9.0°C (16°F) [RH = 44%]
Pressure (altimeter): 29.79 inches Hg (1008.9 mb[Sea-level pressure: 1012.1 mb]
Winds: from the N (350 degrees) at 7 MPH (6 knots; 3.1 m/s)
Visibility: 10 or more miles (16+ km)
Ceiling: at least 12,000 feet AGL
Clouds: sky clear below 12,000 feet AGL
Weather: automated observation with no human augmentation;
there may or may not be significant weather present at this time

METAR text: KAFF 182358Z AUTO 17004KT 10SM CLR 05/M09 A2979 RMK AO2 SLP110 T00481094 10126 20048 57005
Conditions at: KAFF (USAF ACADEMY/COS, CO, US) observed 2358 UTC 18 January 2017
Temperature: 4.8°C (41°F)
Dewpoint: -9.4°C (15°F) [RH = 35%]
Pressure (altimeter): 29.79 inches Hg (1008.9 mb[Sea-level pressure: 1011.0 mb]
Winds: from the S (170 degrees) at 5 MPH (4 knots; 2.1 m/s)
Visibility: 10 or more miles (16+ km)
Ceiling: at least 12,000 feet AGL
Clouds: sky clear below 12,000 feet AGL
Weather: automated observation with no human augmentation;
there may or may not be significant weather present at this time

METAR text: KAFF 182258Z AUTO 17008KT 10SM CLR 08/M10 A2980 RMK AO2 SLP101 T00801100
Conditions at: KAFF (USAF ACADEMY/COS, CO, US) observed 2258 UTC 18 January 2017
Temperature: 8.0°C (46°F)
Dewpoint: -10.0°C (14°F) [RH = 27%]
Pressure (altimeter): 29.80 inches Hg (1009.2 mb[Sea-level pressure: 1010.1 mb]
Winds: from the S (170 degrees) at 9 MPH (8 knots; 4.2 m/s)
Visibility: 10 or more miles (16+ km)
Ceiling: at least 12,000 feet AGL
Clouds: sky clear below 12,000 feet AGL
Weather: automated observation with no human augmentation;
there may or may not be significant weather present at this time

METAR text: KAFF 182158Z AUTO 17010KT 10SM CLR 11/M10 A2980 RMK AO2 SLP095 T01071105
Conditions at: KAFF (USAF ACADEMY/COS, CO, US) observed 2158 UTC 18 January 2017
Temperature: 10.7°C (51°F)
Dewpoint: -10.5°C (13°F) [RH = 21%]
Pressure (altimeter): 29.80 inches Hg (1009.2 mb[Sea-level pressure: 1009.5 mb]
Winds: from the S (170 degrees) at 12 MPH (10 knots; 5.2 m/s)
Visibility: 10 or more miles (16+ km)
Ceiling: at least 12,000 feet AGL
Clouds: sky clear below 12,000 feet AGL
Weather: automated observation with no human augmentation;
there may or may not be significant weather present at this time

METAR text: KAFF 182058Z AUTO 16004KT 10SM CLR 12/M22 A2981 RMK AO2 SLP092 T01241220 57023
Conditions at: KAFF (USAF ACADEMY/COS, CO, US) observed 2058 UTC 18 January 2017
Temperature: 12.4°C (54°F)
Dewpoint: -22.0°C (-8°F) [RH = 7%]
Pressure (altimeter): 29.81 inches Hg (1009.6 mb[Sea-level pressure: 1009.2 mb]
Winds: from the SSE (160 degrees) at 5 MPH (4 knots; 2.1 m/s)
Visibility: 10 or more miles (16+ km)
Ceiling: at least 12,000 feet AGL
Clouds: sky clear below 12,000 feet AGL
Weather: automated observation with no human augmentation;
there may or may not be significant weather present at this time

METAR text: KAFF 181958Z AUTO 12003KT 10SM SCT170 11/M23 A2984 RMK AO2 SLP109 T01081226
Conditions at: KAFF (USAF ACADEMY/COS, CO, US) observed 1958 UTC 18 January 2017
Temperature: 10.8°C (51°F)
Dewpoint: -22.6°C (-9°F) [RH = 8%]
Pressure (altimeter): 29.84 inches Hg (1010.6 mb[Sea-level pressure: 1010.9 mb]
Winds: from the ESE (120 degrees) at 3 MPH (3 knots; 1.6 m/s)
Visibility: 10 or more miles (16+ km)
Ceiling: at least 12,000 feet AGL
Clouds: scattered clouds at 17000 feet AGL
Weather: automated observation with no human augmentation;
there may or may not be significant weather present at this time

METAR text: KAFF 181858Z AUTO 05007KT 10SM CLR 11/M20 A2986 RMK AO2 SLP116 T01121203
Conditions at: KAFF (USAF ACADEMY/COS, CO, US) observed 1858 UTC 18 January 2017
Temperature: 11.2°C (52°F)
Dewpoint: -20.3°C (-5°F) [RH = 9%]
Pressure (altimeter): 29.86 inches Hg (1011.3 mb[Sea-level pressure: 1011.6 mb]
Winds: from the NE (50 degrees) at 8 MPH (7 knots; 3.6 m/s)
Visibility: 10 or more miles (16+ km)
Ceiling: at least 12,000 feet AGL
Clouds: sky clear below 12,000 feet AGL
Weather: automated observation with no human augmentation;
there may or may not be significant weather present at this time

METAR text: KAFF 181758Z AUTO 02006KT 10SM CLR 10/M18 A2989 RMK AO2 SLP121 T01041182 10104 21082 58013
Conditions at: KAFF (USAF ACADEMY/COS, CO, US) observed 1758 UTC 18 January 2017
Temperature: 10.4°C (51°F)
Dewpoint: -18.2°C (-1°F) [RH = 12%]
Pressure (altimeter): 29.89 inches Hg (1012.3 mb[Sea-level pressure: 1012.1 mb]
Winds: from the NNE (20 degrees) at 7 MPH (6 knots; 3.1 m/s)
Visibility: 10 or more miles (16+ km)
Ceiling: at least 12,000 feet AGL
Clouds: sky clear below 12,000 feet AGL
Weather: automated observation with no human augmentation;
there may or may not be significant weather present at this time

METAR text: KAFF 181658Z AUTO 00000KT 10SM CLR 06/M08 A2992 RMK AO2 SLP150 T00611084
Conditions at: KAFF (USAF ACADEMY/COS, CO, US) observed 1658 UTC 18 January 2017
Temperature: 6.1°C (43°F)
Dewpoint: -8.4°C (17°F) [RH = 34%]
Pressure (altimeter): 29.92 inches Hg (1013.3 mb[Sea-level pressure: 1015.0 mb]
Winds: calm
Visibility: 10 or more miles (16+ km)
Ceiling: at least 12,000 feet AGL
Clouds: sky clear below 12,000 feet AGL
Weather: automated observation with no human augmentation;
there may or may not be significant weather present at this time

METAR text: KAFF 181558Z AUTO 36008KT 10SM CLR M01/M09 A2993 RMK AO2 SLP165 T10061094
Conditions at: KAFF (USAF ACADEMY/COS, CO, US) observed 1558 UTC 18 January 2017
Temperature: -0.6°C (31°F)
Dewpoint: -9.4°C (15°F) [RH = 51%]
Pressure (altimeter): 29.93 inches Hg (1013.6 mb[Sea-level pressure: 1016.5 mb]
Winds: from the N (360 degrees) at 9 MPH (8 knots; 4.2 m/s)
Visibility: 10 or more miles (16+ km)
Ceiling: at least 12,000 feet AGL
Clouds: sky clear below 12,000 feet AGL
Weather: automated observation with no human augmentation;
there may or may not be significant weather present at this time

METAR text: KAFF 181547Z 35006KT 10SM CLR M02/M10 A2993
Conditions at: KAFF (USAF ACADEMY/COS, CO, US) observed 1547 UTC 18 January 2017
Temperature: -2.0°C (28°F)
Dewpoint: -10.0°C (14°F) [RH = 54%]
Pressure (altimeter): 29.93 inches Hg (1013.6 mb)
Winds: from the N (350 degrees) at 7 MPH (6 knots; 3.1 m/s)
Visibility: 10 or more miles (16+ km)
Ceiling: at least 12,000 feet AGL
Clouds: sky clear below 12,000 feet AGL
Weather: no significant weather observed at this time

METAR text: KAFF 181528Z 35008KT 10SM CLR M04/M11 A2993
Conditions at: KAFF (USAF ACADEMY/COS, CO, US) observed 1528 UTC 18 January 2017
Temperature: -4.0°C (25°F)
Dewpoint: -11.0°C (12°F) [RH = 58%]
Pressure (altimeter): 29.93 inches Hg (1013.6 mb)
Winds: from the N (350 degrees) at 9 MPH (8 knots; 4.2 m/s)
Visibility: 10 or more miles (16+ km)
Ceiling: at least 12,000 feet AGL
Clouds: sky clear below 12,000 feet AGL
Weather: no significant weather observed at this time

METAR text: KAFF 181458Z AUTO 01007KT 10SM CLR M06/M12 A2994 RMK AO2 SLP181 T10601121 58003
Conditions at: KAFF (USAF ACADEMY/COS, CO, US) observed 1458 UTC 18 January 2017
Temperature: -6.0°C (21°F)
Dewpoint: -12.1°C (10°F) [RH = 62%]
Pressure (altimeter): 29.94 inches Hg (1014.0 mb[Sea-level pressure: 1018.1 mb]
Winds: from the N (10 degrees) at 8 MPH (7 knots; 3.6 m/s)
Visibility: 10 or more miles (16+ km)
Ceiling: at least 12,000 feet AGL
Clouds: sky clear below 12,000 feet AGL
Weather: automated observation with no human augmentation;
there may or may not be significant weather present at this time

METAR text: KAFF 181358Z AUTO 01011KT 10SM CLR M07/M12 A2995 RMK AO2 SLP190 T10721122
Conditions at: KAFF (USAF ACADEMY/COS, CO, US) observed 1358 UTC 18 January 2017
Temperature: -7.2°C (19°F)
Dewpoint: -12.2°C (10°F) [RH = 67%]
Pressure (altimeter): 29.95 inches Hg (1014.3 mb[Sea-level pressure: 1019.0 mb]
Winds: from the N (10 degrees) at 13 MPH (11 knots; 5.7 m/s)
Visibility: 10 or more miles (16+ km)
Ceiling: at least 12,000 feet AGL
Clouds: sky clear below 12,000 feet AGL
Weather: automated observation with no human augmentation;
there may or may not be significant weather present at this time

METAR text: KAFF 181258Z AUTO 01010KT 10SM CLR M08/M12 A2995 RMK AO2 SLP184 T10781117
Conditions at: KAFF (USAF ACADEMY/COS, CO, US) observed 1258 UTC 18 January 2017
Temperature: -7.8°C (18°F)
Dewpoint: -11.7°C (11°F) [RH = 74%]
Pressure (altimeter): 29.95 inches Hg (1014.3 mb[Sea-level pressure: 1018.4 mb]
Winds: from the N (10 degrees) at 12 MPH (10 knots; 5.2 m/s)
Visibility: 10 or more miles (16+ km)
Ceiling: at least 12,000 feet AGL
Clouds: sky clear below 12,000 feet AGL
Weather: automated observation with no human augmentation;
there may or may not be significant weather present at this time

METAR text: KAFF 181158Z AUTO 36009KT 10SM CLR M07/M11 A2994 RMK AO2 SLP163 T10741111 11058 21086 57011
Conditions at: KAFF (USAF ACADEMY/COS, CO, US) observed 1158 UTC 18 January 2017
Temperature: -7.4°C (19°F)
Dewpoint: -11.1°C (12°F) [RH = 75%]
Pressure (altimeter): 29.94 inches Hg (1014.0 mb[Sea-level pressure: 1016.3 mb]
Winds: from the N (360 degrees) at 10 MPH (9 knots; 4.7 m/s)
Visibility: 10 or more miles (16+ km)
Ceiling: at least 12,000 feet AGL
Clouds: sky clear below 12,000 feet AGL
Weather: automated observation with no human augmentation;
there may or may not be significant weather present at this time

METAR text: KAFF 181058Z AUTO 02004KT 10SM CLR M06/M11 A2995 RMK AO2 SLP154 T10631112
Conditions at: KAFF (USAF ACADEMY/COS, CO, US) observed 1058 UTC 18 January 2017
Temperature: -6.3°C (21°F)
Dewpoint: -11.2°C (12°F) [RH = 68%]
Pressure (altimeter): 29.95 inches Hg (1014.3 mb[Sea-level pressure: 1015.4 mb]
Winds: from the NNE (20 degrees) at 5 MPH (4 knots; 2.1 m/s)
Visibility: 10 or more miles (16+ km)
Ceiling: at least 12,000 feet AGL
Clouds: sky clear below 12,000 feet AGL
Weather: automated observation with no human augmentation;
there may or may not be significant weather present at this time

METAR text: KAFF 180958Z AUTO 36009KT 10SM CLR M07/M11 A2996 RMK AO2 SLP164 T10741110
Conditions at: KAFF (USAF ACADEMY/COS, CO, US) observed 0958 UTC 18 January 2017
Temperature: -7.4°C (19°F)
Dewpoint: -11.0°C (12°F) [RH = 75%]
Pressure (altimeter): 29.96 inches Hg (1014.6 mb[Sea-level pressure: 1016.4 mb]
Winds: from the N (360 degrees) at 10 MPH (9 knots; 4.7 m/s)
Visibility: 10 or more miles (16+ km)
Ceiling: at least 12,000 feet AGL
Clouds: sky clear below 12,000 feet AGL
Weather: automated observation with no human augmentation;
there may or may not be significant weather present at this time

METAR text: KAFF 180858Z AUTO 36010KT 10SM CLR M07/M10 A2999 RMK AO2 SLP175 T10751104 57017
Conditions at: KAFF (USAF ACADEMY/COS, CO, US) observed 0858 UTC 18 January 2017
Temperature: -7.5°C (18°F)
Dewpoint: -10.4°C (13°F) [RH = 80%]
Pressure (altimeter): 29.99 inches Hg (1015.7 mb[Sea-level pressure: 1017.5 mb]
Winds: from the N (360 degrees) at 12 MPH (10 knots; 5.2 m/s)
Visibility: 10 or more miles (16+ km)
Ceiling: at least 12,000 feet AGL
Clouds: sky clear below 12,000 feet AGL
Weather: automated observation with no human augmentation;
there may or may not be significant weather present at this time

METAR text: KAFF 180758Z AUTO 01008KT 10SM CLR M07/M10 A3001 RMK AO2 SLP188 T10731102
Conditions at: KAFF (USAF ACADEMY/COS, CO, US) observed 0758 UTC 18 January 2017
Temperature: -7.3°C (19°F)
Dewpoint: -10.2°C (14°F) [RH = 80%]
Pressure (altimeter): 30.01 inches Hg (1016.3 mb[Sea-level pressure: 1018.8 mb]
Winds: from the N (10 degrees) at 9 MPH (8 knots; 4.2 m/s)
Visibility: 10 or more miles (16+ km)
Ceiling: at least 12,000 feet AGL
Clouds: sky clear below 12,000 feet AGL
Weather: automated observation with no human augmentation;
there may or may not be significant weather present at this time

METAR text: KAFF 180658Z AUTO 36009KT 10SM CLR M07/M10 A3003 RMK AO2 SLP201 T10701101 400751071
Conditions at: KAFF (USAF ACADEMY/COS, CO, US) observed 0658 UTC 18 January 2017
Temperature: -7.0°C (19°F)
Dewpoint: -10.1°C (14°F) [RH = 78%]
Pressure (altimeter): 30.03 inches Hg (1017.0 mb[Sea-level pressure: 1020.1 mb]
Winds: from the N (360 degrees) at 10 MPH (9 knots; 4.7 m/s)
Visibility: 10 or more miles (16+ km)
Ceiling: at least 12,000 feet AGL
Clouds: sky clear below 12,000 feet AGL
Weather: automated observation with no human augmentation;
there may or may not be significant weather present at this time

METAR text: KAFF 180558Z AUTO 34009KT 10SM CLR M06/M10 A3005 RMK AO2 SLP214 T10621102 10046 21064 51005
Conditions at: KAFF (USAF ACADEMY/COS, CO, US) observed 0558 UTC 18 January 2017
Temperature: -6.2°C (21°F)
Dewpoint: -10.2°C (14°F) [RH = 73%]
Pressure (altimeter): 30.05 inches Hg (1017.7 mb[Sea-level pressure: 1021.4 mb]
Winds: from the NNW (340 degrees) at 10 MPH (9 knots; 4.7 m/s)
Visibility: 10 or more miles (16+ km)
Ceiling: at least 12,000 feet AGL
Clouds: sky clear below 12,000 feet AGL
Weather: automated observation with no human augmentation;
there may or may not be significant weather present at this time

METAR text: KAFF 180458Z AUTO 35007KT 10SM CLR M06/M10 A3005 RMK AO2 SLP220 T10601099
Conditions at: KAFF (USAF ACADEMY/COS, CO, US) observed 0458 UTC 18 January 2017
Temperature: -6.0°C (21°F)
Dewpoint: -9.9°C (14°F) [RH = 74%]
Pressure (altimeter): 30.05 inches Hg (1017.7 mb[Sea-level pressure: 1022.0 mb]
Winds: from the N (350 degrees) at 8 MPH (7 knots; 3.6 m/s)
Visibility: 10 or more miles (16+ km)
Ceiling: at least 12,000 feet AGL
Clouds: sky clear below 12,000 feet AGL
Weather: automated observation with no human augmentation;
there may or may not be significant weather present at this time

METAR text: KAFF 180358Z AUTO 02004KT 10SM CLR M03/M08 A3004 RMK AO2 SLP210 T10341076
Conditions at: KAFF (USAF ACADEMY/COS, CO, US) observed 0358 UTC 18 January 2017
Temperature: -3.4°C (26°F)
Dewpoint: -7.6°C (18°F) [RH = 73%]
Pressure (altimeter): 30.04 inches Hg (1017.4 mb[Sea-level pressure: 1021.0 mb]
Winds: from the NNE (20 degrees) at 5 MPH (4 knots; 2.1 m/s)
Visibility: 10 or more miles (16+ km)
Ceiling: at least 12,000 feet AGL
Clouds: sky clear below 12,000 feet AGL
Weather: automated observation with no human augmentation;
there may or may not be significant weather present at this time

METAR text: KAFF 180258Z AUTO 34007KT 10SM CLR M03/M06 A3003 RMK AO2 SLP201 T10341064 50001
Conditions at: KAFF (USAF ACADEMY/COS, CO, US) observed 0258 UTC 18 January 2017
Temperature: -3.4°C (26°F)
Dewpoint: -6.4°C (20°F) [RH = 80%]
Pressure (altimeter): 30.03 inches Hg (1017.0 mb[Sea-level pressure: 1020.1 mb]
Winds: from the NNW (340 degrees) at 8 MPH (7 knots; 3.6 m/s)
Visibility: 10 or more miles (16+ km)
Ceiling: at least 12,000 feet AGL
Clouds: sky clear below 12,000 feet AGL
Weather: automated observation with no human augmentation;
there may or may not be significant weather present at this time

METAR text: KAFF 180158Z AUTO 01006KT 10SM CLR M03/M05 A3003 RMK AO2 SLP201 T10261052
Conditions at: KAFF (USAF ACADEMY/COS, CO, US) observed 0158 UTC 18 January 2017
Temperature: -2.6°C (27°F)
Dewpoint: -5.2°C (23°F) [RH = 82%]
Pressure (altimeter): 30.03 inches Hg (1017.0 mb[Sea-level pressure: 1020.1 mb]
Winds: from the N (10 degrees) at 7 MPH (6 knots; 3.1 m/s)
Visibility: 10 or more miles (16+ km)
Ceiling: at least 12,000 feet AGL
Clouds: sky clear below 12,000 feet AGL
Weather: automated observation with no human augmentation;
there may or may not be significant weather present at this time

METAR text: KAFF 180058Z AUTO 34005KT 10SM CLR 00/M05 A3003 RMK AO2 SLP195 T10011048
Conditions at: KAFF (USAF ACADEMY/COS, CO, US) observed 0058 UTC 18 January 2017
Temperature: -0.1°C (32°F)
Dewpoint: -4.8°C (23°F) [RH = 71%]
Pressure (altimeter): 30.03 inches Hg (1017.0 mb[Sea-level pressure: 1019.5 mb]
Winds: from the NNW (340 degrees) at 6 MPH (5 knots; 2.6 m/s)
Visibility: 10 or more miles (16+ km)
Ceiling: at least 12,000 feet AGL
Clouds: sky clear below 12,000 feet AGL
Weather: automated observation with no human augmentation;
there may or may not be significant weather present at this time

METAR text: KAFF 172358Z AUTO 22003KT 10SM CLR 05/M04 A3002 RMK AO2 SLP179 T00491041 10075 21006 52008
Conditions at: KAFF (USAF ACADEMY/COS, CO, US) observed 2358 UTC 17 January 2017
Temperature: 4.9°C (41°F)
Dewpoint: -4.1°C (25°F) [RH = 52%]
Pressure (altimeter): 30.02 inches Hg (1016.7 mb[Sea-level pressure: 1017.9 mb]
Winds: from the SW (220 degrees) at 3 MPH (3 knots; 1.6 m/s)
Visibility: 10 or more miles (16+ km)
Ceiling: at least 12,000 feet AGL
Clouds: sky clear below 12,000 feet AGL
Weather: automated observation with no human augmentation;
there may or may not be significant weather present at this time

METAR text: KAFF 172258Z AUTO 00000KT 10SM CLR 07/M04 A3000 RMK AO2 SLP166 T00711043
Conditions at: KAFF (USAF ACADEMY/COS, CO, US) observed 2258 UTC 17 January 2017
Temperature: 7.1°C (45°F)
Dewpoint: -4.3°C (24°F) [RH = 44%]
Pressure (altimeter): 30.00 inches Hg (1016.0 mb[Sea-level pressure: 1016.6 mb]
Winds: calm
Visibility: 10 or more miles (16+ km)
Ceiling: at least 12,000 feet AGL
Clouds: sky clear below 12,000 feet AGL
Weather: automated observation with no human augmentation;
there may or may not be significant weather present at this time

METAR text: KAFF 172158Z AUTO VRB04KT 10SM CLR 07/M04 A3000 RMK AO2 SLP166 T00711043
Conditions at: KAFF (USAF ACADEMY/COS, CO, US) observed 2158 UTC 17 January 2017
Temperature: 7.1°C (45°F)
Dewpoint: -4.3°C (24°F) [RH = 44%]
Pressure (altimeter): 30.00 inches Hg (1016.0 mb[Sea-level pressure: 1016.6 mb]
Winds: variable direction winds at 5 MPH (4 knots; 2.1 m/s)
Visibility: 10 or more miles (16+ km)
Ceiling: at least 12,000 feet AGL
Clouds: sky clear below 12,000 feet AGL
Weather: automated observation with no human augmentation;
there may or may not be significant weather present at this time

METAR text: KAFF 172058Z AUTO 17003KT 10SM CLR 07/M03 A2999 RMK AO2 SLP169 T00661035 57021
Conditions at: KAFF (USAF ACADEMY/COS, CO, US) observed 2058 UTC 17 January 2017
Temperature: 6.6°C (44°F)
Dewpoint: -3.5°C (26°F) [RH = 48%]
Pressure (altimeter): 29.99 inches Hg (1015.7 mb[Sea-level pressure: 1016.9 mb]
Winds: from the S (170 degrees) at 3 MPH (3 knots; 1.6 m/s)
Visibility: 10 or more miles (16+ km)
Ceiling: at least 12,000 feet AGL
Clouds: sky clear below 12,000 feet AGL
Weather: automated observation with no human augmentation;
there may or may not be significant weather present at this time

METAR text: KAFF 171958Z AUTO 17004KT 10SM CLR 05/M03 A3000 RMK AO2 SLP178 T00541029
Conditions at: KAFF (USAF ACADEMY/COS, CO, US) observed 1958 UTC 17 January 2017
Temperature: 5.4°C (42°F)
Dewpoint: -2.9°C (27°F) [RH = 55%]
Pressure (altimeter): 30.00 inches Hg (1016.0 mb[Sea-level pressure: 1017.8 mb]
Winds: from the S (170 degrees) at 5 MPH (4 knots; 2.1 m/s)
Visibility: 10 or more miles (16+ km)
Ceiling: at least 12,000 feet AGL
Clouds: sky clear below 12,000 feet AGL
Weather: automated observation with no human augmentation;
there may or may not be significant weather present at this time

METAR text: KAFF 171858Z AUTO 00000KT 10SM CLR 02/M02 A3003 RMK AO2 SLP195 T00231024
Conditions at: KAFF (USAF ACADEMY/COS, CO, US) observed 1858 UTC 17 January 2017
Temperature: 2.3°C (36°F)
Dewpoint: -2.4°C (28°F) [RH = 71%]
Pressure (altimeter): 30.03 inches Hg (1017.0 mb[Sea-level pressure: 1019.5 mb]
Winds: calm
Visibility: 10 or more miles (16+ km)
Ceiling: at least 12,000 feet AGL
Clouds: sky clear below 12,000 feet AGL
Weather: automated observation with no human augmentation;
there may or may not be significant weather present at this time

METAR text: KAFF 171758Z 00000KT 10SM SCT006 M01/M03 A3007 RMK AO2A SLP215 T10081032 11005 21028 50002
Conditions at: KAFF (USAF ACADEMY/COS, CO, US) observed 1758 UTC 17 January 2017
Temperature: -0.8°C (31°F)
Dewpoint: -3.2°C (26°F) [RH = 84%]
Pressure (altimeter): 30.07 inches Hg (1018.4 mb[Sea-level pressure: 1021.5 mb]
Winds: calm
Visibility: 10 or more miles (16+ km)
Ceiling: at least 12,000 feet AGL
Clouds: scattered clouds at 600 feet AGL
Weather: no significant weather observed at this time

METAR text: KAFF 171741Z 00000KT 10SM SCT006 00/M03 A3007 RMK A02A
Conditions at: KAFF (USAF ACADEMY/COS, CO, US) observed 1741 UTC 17 January 2017
Temperature: 0.0°C (32°F)
Dewpoint: -3.0°C (27°F) [RH = 80%]
Pressure (altimeter): 30.07 inches Hg (1018.4 mb)
Winds: calm
Visibility: 10 or more miles (16+ km)
Ceiling: at least 12,000 feet AGL
Clouds: scattered clouds at 600 feet AGL
Weather: no significant weather observed at this time

METAR text: KAFF 171658Z AUTO 00000KT 10SM OVC006 M02/M03 A3008 RMK AO2 SLP219 T10201033
Conditions at: KAFF (USAF ACADEMY/COS, CO, US) observed 1658 UTC 17 January 2017
Temperature: -2.0°C (28°F)
Dewpoint: -3.3°C (26°F) [RH = 91%]
Pressure (altimeter): 30.08 inches Hg (1018.7 mb[Sea-level pressure: 1021.9 mb]
Winds: calm
Visibility: 10 or more miles (16+ km)
Ceiling: 600 feet AGL
Clouds: overcast cloud deck at 600 feet AGL
Weather: automated observation with no human augmentation;
there may or may not be significant weather present at this time